createdAt,value
2017-08-27T00:00:51.138Z,10.10
2017-08-27T00:03:17.402Z,10.40
2017-08-27T00:05:43.746Z,10.90
2017-08-27T00:08:09.990Z,10.33
2017-08-27T00:10:36.282Z,10.40
2017-08-27T00:13:02.582Z,11.40
2017-08-27T00:15:28.861Z,10.63
2017-08-27T00:17:55.182Z,10.37
2017-08-27T00:20:21.438Z,10.10
2017-08-27T00:22:47.733Z,10.47
2017-08-27T00:25:13.977Z,10.40
2017-08-27T00:27:40.275Z,11.50
2017-08-27T00:30:06.550Z,11.70
2017-08-27T00:32:32.867Z,10.50
2017-08-27T00:34:59.127Z,11.43
2017-08-27T00:37:25.421Z,12.07
2017-08-27T00:39:51.718Z,11.73
2017-08-27T00:42:18.011Z,12.10
2017-08-27T00:44:44.332Z,11.03
2017-08-27T00:47:10.630Z,11.93
2017-08-27T00:49:36.928Z,11.37
2017-08-27T00:52:03.223Z,12.17
2017-08-27T00:54:29.820Z,13.20
2017-08-27T00:56:56.105Z,12.57
2017-08-27T00:59:22.411Z,13.83
2017-08-27T01:01:48.714Z,14.00
2017-08-27T01:04:15.019Z,13.77
2017-08-27T01:06:41.386Z,13.80
2017-08-27T01:09:07.695Z,13.83
2017-08-27T01:11:33.989Z,14.00
2017-08-27T01:14:00.274Z,12.97
2017-08-27T01:16:26.560Z,14.00
2017-08-27T01:18:52.836Z,13.03
2017-08-27T01:21:19.190Z,14.67
2017-08-27T01:23:45.536Z,14.20
2017-08-27T01:26:11.820Z,12.87
2017-08-27T01:28:38.114Z,13.70
2017-08-27T01:31:04.391Z,13.20
2017-08-27T01:33:30.692Z,14.97
2017-08-27T01:35:56.934Z,13.20
2017-08-27T01:38:24.000Z,12.73
2017-08-27T01:40:50.278Z,13.10
2017-08-27T01:43:16.574Z,12.67
2017-08-27T01:45:42.878Z,12.43
2017-08-27T01:48:09.162Z,13.47
2017-08-27T01:50:35.435Z,12.20
2017-08-27T01:53:01.704Z,13.10
2017-08-27T01:55:27.992Z,13.20
2017-08-27T01:57:54.263Z,12.40
2017-08-27T02:00:20.565Z,12.37
2017-08-27T02:02:46.834Z,13.00
2017-08-27T02:05:13.141Z,12.50
2017-08-27T02:07:39.414Z,13.73
2017-08-27T02:10:05.684Z,12.23
2017-08-27T02:12:31.961Z,13.10
2017-08-27T02:14:58.246Z,12.40
2017-08-27T02:17:24.527Z,12.23
2017-08-27T02:19:50.802Z,11.60
2017-08-27T02:22:17.114Z,12.77
2017-08-27T02:24:43.391Z,11.90
2017-08-27T02:27:09.686Z,12.73
2017-08-27T02:29:35.976Z,12.73
2017-08-27T02:32:02.237Z,12.43
2017-08-27T02:34:28.531Z,13.40
2017-08-27T02:36:54.801Z,11.03
2017-08-27T02:39:21.074Z,12.40
2017-08-27T02:41:47.338Z,11.60
2017-08-27T02:44:13.645Z,12.67
2017-08-27T02:46:39.936Z,11.13
2017-08-27T02:49:06.227Z,11.93
2017-08-27T02:51:32.492Z,12.00
2017-08-27T02:53:58.790Z,12.33
2017-08-27T02:56:25.096Z,12.10
2017-08-27T02:58:51.378Z,11.97
2017-08-27T03:01:17.658Z,12.10
2017-08-27T03:03:43.922Z,12.50
2017-08-27T03:06:10.201Z,11.67
2017-08-27T03:08:36.490Z,12.80
2017-08-27T03:11:02.790Z,13.40
2017-08-27T03:13:29.069Z,13.20
2017-08-27T03:15:55.372Z,10.80
2017-08-27T03:18:21.660Z,12.07
2017-08-27T03:20:47.928Z,13.73
2017-08-27T03:23:14.219Z,11.80
2017-08-27T03:25:40.477Z,12.30
2017-08-27T03:28:06.761Z,12.50
2017-08-27T03:30:33.020Z,12.80
2017-08-27T03:32:59.330Z,12.50
2017-08-27T03:35:25.590Z,11.90
2017-08-27T03:37:51.882Z,12.97
2017-08-27T03:40:18.180Z,12.20
2017-08-27T03:42:44.475Z,12.00
2017-08-27T03:45:10.777Z,12.00
2017-08-27T03:47:37.093Z,13.57
2017-08-27T03:50:03.411Z,12.80
2017-08-27T03:52:29.689Z,13.00
2017-08-27T03:54:56.006Z,12.80
2017-08-27T03:57:22.291Z,12.27
2017-08-27T03:59:49.091Z,12.37
2017-08-27T04:02:15.414Z,12.60
2017-08-27T04:04:41.670Z,11.80
2017-08-27T04:07:07.957Z,12.50
2017-08-27T04:09:34.244Z,12.17
2017-08-27T04:12:00.550Z,13.13
2017-08-27T04:14:26.819Z,12.23
2017-08-27T04:16:53.105Z,13.73
2017-08-27T04:19:19.385Z,14.30
2017-08-27T04:21:45.644Z,12.90
2017-08-27T04:24:11.921Z,13.17
2017-08-27T04:26:38.179Z,11.23
2017-08-27T04:29:04.474Z,11.83
2017-08-27T04:31:30.736Z,10.93
2017-08-27T04:33:57.023Z,12.20
2017-08-27T04:36:23.296Z,11.00
2017-08-27T04:38:49.566Z,10.90
2017-08-27T04:41:15.861Z,12.60
2017-08-27T04:43:42.134Z,11.53
2017-08-27T04:46:08.453Z,11.80
2017-08-27T04:48:34.722Z,11.47
2017-08-27T04:51:00.996Z,12.53
2017-08-27T04:53:27.264Z,11.93
2017-08-27T04:55:53.569Z,11.70
2017-08-27T04:58:19.858Z,12.00
2017-08-27T05:00:46.104Z,11.70
2017-08-27T05:03:12.426Z,12.67
2017-08-27T05:05:38.701Z,12.20
2017-08-27T05:08:04.993Z,12.00
2017-08-27T05:10:31.286Z,13.10
2017-08-27T05:12:57.580Z,11.00
2017-08-27T05:15:23.894Z,11.40
2017-08-27T05:17:50.205Z,11.70
2017-08-27T05:20:16.504Z,12.03
2017-08-27T05:22:42.792Z,11.00
2017-08-27T05:25:09.074Z,10.70
2017-08-27T05:27:35.355Z,11.03
2017-08-27T05:30:01.651Z,10.43
2017-08-27T05:32:27.943Z,12.10
2017-08-27T05:34:54.219Z,12.17
2017-08-27T05:37:20.514Z,11.30
2017-08-27T05:39:46.802Z,12.10
2017-08-27T05:42:13.143Z,12.23
2017-08-27T05:44:39.441Z,11.90
2017-08-27T05:47:05.748Z,12.40
2017-08-27T05:49:32.044Z,11.83
2017-08-27T05:51:58.308Z,11.90
2017-08-27T05:54:24.616Z,12.87
2017-08-27T05:56:50.926Z,13.43
2017-08-27T05:59:17.208Z,12.73
2017-08-27T06:01:43.512Z,11.80
2017-08-27T06:04:09.844Z,12.57
2017-08-27T06:06:36.144Z,13.20
2017-08-27T06:09:02.469Z,11.83
2017-08-27T06:11:28.753Z,12.70
2017-08-27T06:13:55.044Z,12.53
2017-08-27T06:16:21.331Z,13.73
2017-08-27T06:18:48.597Z,14.40
2017-08-27T06:21:14.922Z,13.60
2017-08-27T06:23:41.212Z,14.27
2017-08-27T06:26:07.489Z,13.50
2017-08-27T06:28:34.779Z,13.53
2017-08-27T06:31:01.068Z,13.70
2017-08-27T06:33:27.961Z,12.60
2017-08-27T06:35:54.218Z,14.53
2017-08-27T06:38:20.528Z,13.10
2017-08-27T06:40:46.831Z,12.97
2017-08-27T06:43:13.147Z,14.67
2017-08-27T06:45:39.460Z,13.57
2017-08-27T06:48:06.693Z,12.67
2017-08-27T06:50:32.997Z,13.40
2017-08-27T06:52:59.242Z,13.57
2017-08-27T06:55:25.525Z,14.30
2017-08-27T06:57:51.802Z,14.13
2017-08-27T07:00:18.434Z,14.20
2017-08-27T07:02:44.718Z,13.33
2017-08-27T07:05:10.989Z,14.50
2017-08-27T07:07:37.328Z,13.53
2017-08-27T07:10:03.626Z,12.80
2017-08-27T07:12:29.958Z,14.63
2017-08-27T07:14:56.227Z,13.20
2017-08-27T07:17:23.099Z,12.90
2017-08-27T07:19:49.386Z,12.07
2017-08-27T07:22:15.677Z,13.37
2017-08-27T07:24:41.963Z,12.90
2017-08-27T07:27:09.212Z,12.80
2017-08-27T07:29:35.504Z,12.30
2017-08-27T07:32:01.776Z,12.63
2017-08-27T07:34:28.078Z,12.40
2017-08-27T07:36:54.397Z,12.70
2017-08-27T07:39:20.682Z,12.67
2017-08-27T07:41:46.990Z,13.00
2017-08-27T07:44:13.291Z,11.63
2017-08-27T07:46:39.594Z,12.10
2017-08-27T07:49:05.869Z,11.80
2017-08-27T07:51:32.168Z,10.97
2017-08-27T07:53:58.467Z,12.30
2017-08-27T07:56:24.760Z,13.80
2017-08-27T07:58:51.023Z,13.20
2017-08-27T08:01:17.316Z,13.13
2017-08-27T08:03:43.617Z,14.70
2017-08-27T08:06:09.921Z,13.03
2017-08-27T08:08:36.231Z,13.80
2017-08-27T08:11:02.493Z,13.20
2017-08-27T08:13:28.805Z,14.37
2017-08-27T08:15:55.136Z,14.87
2017-08-27T08:18:21.431Z,14.60
2017-08-27T08:20:48.610Z,15.20
2017-08-27T08:23:14.993Z,14.33
2017-08-27T08:25:41.295Z,13.77
2017-08-27T08:28:07.565Z,14.90
2017-08-27T08:30:33.875Z,13.80
2017-08-27T08:33:00.133Z,13.97
2017-08-27T08:35:26.452Z,14.70
2017-08-27T08:37:52.812Z,13.83
2017-08-27T08:40:19.093Z,14.00
2017-08-27T08:42:45.393Z,13.20
2017-08-27T08:45:12.083Z,15.70
2017-08-27T08:47:38.375Z,15.70
2017-08-27T08:50:04.679Z,15.63
2017-08-27T08:52:31.010Z,14.43
2017-08-27T08:54:57.279Z,14.43
2017-08-27T08:57:23.580Z,15.90
2017-08-27T08:59:49.915Z,15.80
2017-08-27T09:02:16.216Z,16.00
2017-08-27T09:04:42.537Z,15.87
2017-08-27T09:07:08.803Z,14.80
2017-08-27T09:09:35.129Z,15.10
2017-08-27T09:12:01.409Z,15.60
2017-08-27T09:14:27.731Z,15.43
2017-08-27T09:16:54.005Z,15.07
2017-08-27T09:19:20.616Z,14.40
2017-08-27T09:21:47.745Z,14.03
2017-08-27T09:24:14.050Z,14.13
2017-08-27T09:26:40.357Z,15.50
2017-08-27T09:29:06.667Z,15.70
2017-08-27T09:31:32.986Z,15.13
2017-08-27T09:33:59.831Z,14.73
2017-08-27T09:36:26.137Z,15.60
2017-08-27T09:38:52.425Z,15.10
2017-08-27T09:41:18.728Z,14.00
2017-08-27T09:43:45.053Z,14.70
2017-08-27T09:46:11.394Z,14.83
2017-08-27T09:48:37.735Z,14.23
2017-08-27T09:51:04.501Z,14.00
2017-08-27T09:53:30.826Z,14.40
2017-08-27T09:55:57.122Z,16.27
2017-08-27T09:58:23.510Z,16.77
2017-08-27T10:00:49.811Z,17.07
2017-08-27T10:03:16.110Z,16.43
2017-08-27T10:05:42.365Z,15.50
2017-08-27T10:08:08.671Z,17.17
2017-08-27T10:10:34.966Z,16.50
2017-08-27T10:13:01.291Z,15.83
2017-08-27T10:15:27.590Z,16.30
2017-08-27T10:17:53.878Z,18.57
2017-08-27T10:20:20.256Z,17.43
2017-08-27T10:22:46.546Z,18.30
2017-08-27T10:25:12.888Z,17.73
2017-08-27T10:27:39.336Z,16.43
2017-08-27T10:30:05.781Z,17.20
2017-08-27T10:32:32.109Z,16.73
2017-08-27T10:34:58.442Z,17.07
2017-08-27T10:37:24.800Z,18.60
2017-08-27T10:39:51.101Z,17.60
2017-08-27T10:42:17.417Z,19.67
2017-08-27T10:44:43.794Z,19.33
2017-08-27T10:47:10.527Z,18.90
2017-08-27T10:49:36.839Z,19.43
2017-08-27T10:52:03.768Z,20.43
2017-08-27T10:54:30.065Z,19.73
2017-08-27T10:56:56.356Z,20.40
2017-08-27T10:59:23.477Z,20.13
2017-08-27T11:01:49.761Z,21.27
2017-08-27T11:04:16.035Z,20.67
2017-08-27T11:06:42.338Z,20.23
2017-08-27T11:09:08.628Z,20.10
2017-08-27T11:11:34.907Z,21.27
2017-08-27T11:14:01.201Z,21.93
2017-08-27T11:16:27.475Z,21.23
2017-08-27T11:18:53.794Z,20.70
2017-08-27T11:21:20.085Z,19.87
2017-08-27T11:23:46.356Z,18.27
2017-08-27T11:26:12.651Z,19.33
2017-08-27T11:28:38.942Z,19.30
2017-08-27T11:31:05.224Z,20.27
2017-08-27T11:33:31.499Z,19.60
2017-08-27T11:35:57.810Z,17.90
2017-08-27T11:38:24.099Z,18.57
2017-08-27T11:40:50.398Z,19.70
2017-08-27T11:43:16.703Z,17.87
2017-08-27T11:45:43.029Z,20.90
2017-08-27T11:48:09.335Z,19.87
2017-08-27T11:50:35.622Z,20.40
2017-08-27T11:53:01.910Z,19.20
2017-08-27T11:55:28.208Z,18.40
2017-08-27T11:57:54.482Z,18.03
2017-08-27T12:00:20.883Z,17.47
2017-08-27T12:02:47.732Z,16.47
2017-08-27T12:05:14.259Z,15.73
2017-08-27T12:07:40.607Z,17.47
2017-08-27T12:10:06.869Z,17.93
2017-08-27T12:12:33.387Z,17.33
2017-08-27T12:14:59.887Z,17.00
2017-08-27T12:17:26.412Z,15.47
2017-08-27T12:19:52.794Z,15.00
2017-08-27T12:22:19.100Z,15.67
2017-08-27T12:24:45.477Z,14.20
2017-08-27T12:27:11.774Z,14.60
2017-08-27T12:29:38.371Z,14.37
2017-08-27T12:32:04.697Z,13.03
2017-08-27T12:34:31.013Z,12.40
2017-08-27T12:36:57.641Z,12.90
2017-08-27T12:39:23.959Z,14.70
2017-08-27T12:41:50.314Z,14.23
2017-08-27T12:44:16.676Z,13.97
2017-08-27T12:46:42.988Z,14.17
2017-08-27T12:49:09.398Z,15.20
2017-08-27T12:51:36.366Z,15.30
2017-08-27T12:54:02.666Z,15.40
2017-08-27T12:56:28.998Z,15.37
2017-08-27T12:58:55.290Z,15.10
2017-08-27T13:01:21.586Z,13.33
2017-08-27T13:03:47.855Z,15.40
2017-08-27T13:06:14.179Z,14.33
2017-08-27T13:08:40.442Z,16.17
2017-08-27T13:11:06.774Z,15.93
2017-08-27T13:13:33.066Z,15.70
2017-08-27T13:15:59.344Z,15.77
2017-08-27T13:18:25.634Z,16.07
2017-08-27T13:20:51.928Z,16.70
2017-08-27T13:23:18.241Z,15.33
2017-08-27T13:25:44.529Z,15.00
2017-08-27T13:28:10.815Z,14.23
2017-08-27T13:30:37.154Z,15.53
2017-08-27T13:33:03.438Z,14.83
2017-08-27T13:35:29.718Z,14.73
2017-08-27T13:37:56.033Z,13.90
2017-08-27T13:40:22.318Z,13.47
2017-08-27T13:42:48.633Z,12.73
2017-08-27T13:45:14.987Z,13.60
2017-08-27T13:47:42.208Z,13.77
2017-08-27T13:50:09.490Z,14.47
2017-08-27T13:52:35.762Z,14.30
2017-08-27T13:55:02.110Z,12.77
2017-08-27T13:57:28.385Z,14.03
2017-08-27T13:59:54.699Z,13.00
2017-08-27T14:02:20.974Z,13.90
2017-08-27T14:04:47.319Z,13.93
2017-08-27T14:07:13.611Z,12.97
2017-08-27T14:09:39.914Z,13.87
2017-08-27T14:12:06.266Z,13.90
2017-08-27T14:14:32.551Z,13.67
2017-08-27T14:16:58.880Z,14.03
2017-08-27T14:19:25.142Z,12.27
2017-08-27T14:21:51.453Z,12.40
2017-08-27T14:24:18.585Z,13.83
2017-08-27T14:26:44.892Z,13.07
2017-08-27T14:29:11.169Z,14.10
2017-08-27T14:31:38.453Z,13.80
2017-08-27T14:34:04.830Z,13.20
2017-08-27T14:36:31.108Z,12.67
2017-08-27T14:38:57.409Z,13.90
2017-08-27T14:41:23.701Z,13.93
2017-08-27T14:43:50.059Z,14.50
2017-08-27T14:46:16.338Z,14.40
2017-08-27T14:48:43.020Z,14.20
2017-08-27T14:51:10.282Z,15.93
2017-08-27T14:53:37.296Z,14.03
2017-08-27T14:56:03.607Z,14.13
2017-08-27T14:58:29.893Z,15.43
2017-08-27T15:00:56.200Z,15.00
2017-08-27T15:03:22.490Z,13.63
2017-08-27T15:05:48.836Z,15.30
2017-08-27T15:08:15.481Z,15.10
2017-08-27T15:10:41.806Z,13.40
2017-08-27T15:13:08.069Z,15.50
2017-08-27T15:15:34.385Z,13.40
2017-08-27T15:18:00.723Z,14.20
2017-08-27T15:20:26.991Z,14.13
2017-08-27T15:22:53.276Z,12.80
2017-08-27T15:25:19.578Z,12.77
2017-08-27T15:27:45.887Z,13.87
2017-08-27T15:30:12.214Z,12.73
2017-08-27T15:32:38.585Z,12.43
2017-08-27T15:35:04.891Z,15.80
2017-08-27T15:37:31.182Z,15.20
2017-08-27T15:39:57.482Z,14.83
2017-08-27T15:42:24.199Z,13.50
2017-08-27T15:44:50.653Z,14.53
2017-08-27T15:47:16.966Z,12.23
2017-08-27T15:49:43.284Z,11.73
2017-08-27T15:52:10.518Z,10.10
2017-08-27T15:54:36.876Z,9.93
2017-08-27T15:57:03.173Z,10.37
2017-08-27T15:59:29.482Z,9.50
2017-08-27T16:01:55.761Z,10.27
2017-08-27T16:04:22.029Z,9.40
2017-08-27T16:06:48.335Z,8.70
2017-08-27T16:09:14.610Z,10.47
2017-08-27T16:11:40.898Z,11.00
2017-08-27T16:14:07.202Z,10.00
2017-08-27T16:16:33.509Z,10.27
2017-08-27T16:19:00.559Z,9.13
2017-08-27T16:21:28.114Z,8.67
2017-08-27T16:23:54.406Z,9.10
2017-08-27T16:26:20.720Z,8.07
2017-08-27T16:28:47.062Z,8.60
2017-08-27T16:31:13.378Z,8.83
2017-08-27T16:33:40.194Z,8.67
2017-08-27T16:36:06.531Z,8.40
2017-08-27T16:38:32.834Z,7.80
2017-08-27T16:40:59.170Z,7.20
2017-08-27T16:43:25.516Z,8.07
2017-08-27T16:45:51.829Z,7.20
2017-08-27T16:48:18.168Z,7.90
2017-08-27T16:50:44.896Z,8.07
2017-08-27T16:53:11.255Z,8.03
2017-08-27T16:55:38.436Z,7.97
2017-08-27T16:58:04.754Z,7.90
2017-08-27T17:00:31.033Z,8.23
2017-08-27T17:02:57.346Z,8.70
2017-08-27T17:05:23.694Z,8.33
2017-08-27T17:07:50.004Z,8.33
2017-08-27T17:10:16.380Z,9.07
2017-08-27T17:12:42.689Z,8.83
2017-08-27T17:15:09.015Z,9.07
2017-08-27T17:17:35.366Z,8.80
2017-08-27T17:20:02.034Z,9.40
2017-08-27T17:22:31.419Z,9.53
2017-08-27T17:24:57.740Z,9.33
2017-08-27T17:27:24.095Z,9.47
2017-08-27T17:29:50.416Z,10.77
2017-08-27T17:32:16.763Z,9.43
2017-08-27T17:34:43.862Z,10.10
2017-08-27T17:37:10.191Z,11.73
2017-08-27T17:39:36.501Z,11.13
2017-08-27T17:42:02.876Z,10.90
2017-08-27T17:44:29.226Z,10.30
2017-08-27T17:46:55.640Z,10.03
2017-08-27T17:49:22.073Z,9.53
2017-08-27T17:51:48.483Z,9.80
2017-08-27T17:54:14.804Z,9.50
2017-08-27T17:56:41.129Z,10.13
2017-08-27T17:59:07.475Z,10.67
2017-08-27T18:01:33.815Z,10.43
2017-08-27T18:04:00.172Z,10.53
2017-08-27T18:06:26.473Z,10.10
2017-08-27T18:08:52.849Z,10.77
2017-08-27T18:11:19.157Z,11.50
2017-08-27T18:13:46.471Z,10.67
2017-08-27T18:16:14.139Z,10.57
2017-08-27T18:18:40.487Z,10.80
2017-08-27T18:21:06.811Z,10.13
2017-08-27T18:23:33.169Z,10.70
2017-08-27T18:25:59.463Z,10.63
2017-08-27T18:28:25.735Z,11.67
2017-08-27T18:30:52.085Z,11.10
2017-08-27T18:33:18.712Z,11.30
2017-08-27T18:35:45.985Z,11.43
2017-08-27T18:38:12.273Z,11.47
2017-08-27T18:40:39.271Z,10.90
2017-08-27T18:43:06.158Z,11.57
2017-08-27T18:45:32.500Z,11.63
2017-08-27T18:47:58.921Z,10.57
2017-08-27T18:50:25.249Z,11.57
2017-08-27T18:52:52.446Z,11.40
2017-08-27T18:55:18.769Z,10.30
2017-08-27T18:57:45.056Z,12.73
2017-08-27T19:00:11.399Z,12.03
2017-08-27T19:02:37.706Z,11.80
2017-08-27T19:05:04.035Z,11.80
2017-08-27T19:07:30.380Z,12.60
2017-08-27T19:09:56.723Z,11.50
2017-08-27T19:12:23.048Z,10.33
2017-08-27T19:14:49.378Z,10.70
2017-08-27T19:17:16.667Z,10.77
2017-08-27T19:19:43.433Z,11.70
2017-08-27T19:22:09.913Z,12.87
2017-08-27T19:24:36.327Z,12.20
2017-08-27T19:27:03.921Z,12.20
2017-08-27T19:29:30.239Z,11.33
2017-08-27T19:31:56.972Z,12.93
2017-08-27T19:34:23.594Z,11.97
2017-08-27T19:36:50.791Z,13.50
2017-08-27T19:39:17.194Z,12.40
2017-08-27T19:41:43.602Z,12.57
2017-08-27T19:44:09.961Z,10.90
2017-08-27T19:46:36.374Z,11.43
2017-08-27T19:49:02.866Z,11.70
2017-08-27T19:51:29.199Z,12.70
2017-08-27T19:53:55.543Z,13.50
2017-08-27T19:56:22.790Z,12.13
2017-08-27T19:58:49.310Z,13.03
2017-08-27T20:01:15.893Z,11.50
2017-08-27T20:03:42.382Z,12.80
2017-08-27T20:06:08.672Z,11.40
2017-08-27T20:08:35.007Z,12.33
2017-08-27T20:11:01.323Z,12.73
2017-08-27T20:13:27.694Z,11.27
2017-08-27T20:15:54.049Z,12.33
2017-08-27T20:18:21.557Z,13.40
2017-08-27T20:20:48.223Z,12.90
2017-08-27T20:23:14.739Z,12.70
2017-08-27T20:25:41.454Z,12.40
2017-08-27T20:28:07.934Z,12.53
2017-08-27T20:30:34.238Z,12.30
2017-08-27T20:33:00.695Z,12.93
2017-08-27T20:35:27.240Z,12.20
2017-08-27T20:37:53.578Z,12.97
2017-08-27T20:40:19.893Z,12.73
2017-08-27T20:42:46.197Z,13.10
2017-08-27T20:45:13.262Z,14.63
2017-08-27T20:47:39.584Z,16.10
2017-08-27T20:50:07.717Z,15.30
2017-08-27T20:52:34.036Z,15.23
2017-08-27T20:55:00.322Z,15.80
2017-08-27T20:57:26.636Z,15.40
2017-08-27T20:59:52.963Z,15.20
2017-08-27T21:02:20.167Z,15.17
2017-08-27T21:04:46.498Z,16.70
2017-08-27T21:07:12.809Z,14.90
2017-08-27T21:09:39.126Z,14.20
2017-08-27T21:12:06.199Z,13.47
2017-08-27T21:14:32.493Z,14.00
2017-08-27T21:16:59.146Z,13.97
2017-08-27T21:19:25.444Z,14.07
2017-08-27T21:21:51.727Z,12.80
2017-08-27T21:24:18.063Z,12.00
2017-08-27T21:26:44.359Z,13.43
2017-08-27T21:29:10.626Z,13.97
2017-08-27T21:31:36.947Z,14.83
2017-08-27T21:34:03.251Z,13.40
2017-08-27T21:36:29.561Z,13.43
2017-08-27T21:38:55.808Z,13.87
2017-08-27T21:41:22.103Z,14.33
2017-08-27T21:43:48.364Z,12.07
2017-08-27T21:46:14.649Z,13.70
2017-08-27T21:48:40.932Z,13.60
2017-08-27T21:51:07.229Z,13.50
2017-08-27T21:53:33.533Z,13.27
2017-08-27T21:55:59.796Z,13.93
2017-08-27T21:58:26.089Z,13.47
2017-08-27T22:00:52.398Z,13.53
2017-08-27T22:03:18.718Z,14.27
2017-08-27T22:05:45.015Z,13.93
2017-08-27T22:08:11.326Z,14.83
2017-08-27T22:10:38.517Z,14.80
2017-08-27T22:13:04.856Z,17.00
2017-08-27T22:15:31.156Z,16.60
2017-08-27T22:17:57.442Z,16.60
2017-08-27T22:20:24.048Z,17.30
2017-08-27T22:22:50.334Z,18.40
2017-08-27T22:25:16.609Z,18.47
2017-08-27T22:27:42.924Z,16.60
2017-08-27T22:30:09.210Z,16.27
2017-08-27T22:32:35.509Z,16.50
2017-08-27T22:35:01.787Z,17.87
2017-08-27T22:37:28.105Z,14.77
2017-08-27T22:39:54.380Z,14.17
2017-08-27T22:42:20.727Z,15.57
2017-08-27T22:44:47.014Z,15.63
2017-08-27T22:47:13.317Z,16.03
2017-08-27T22:49:39.612Z,15.90
2017-08-27T22:52:05.911Z,15.17
2017-08-27T22:54:32.254Z,15.83
2017-08-27T22:56:58.530Z,15.67
2017-08-27T22:59:24.895Z,16.00
2017-08-27T23:01:51.222Z,15.80
2017-08-27T23:04:19.255Z,15.77
2017-08-27T23:06:45.502Z,15.70
2017-08-27T23:09:11.790Z,13.63
2017-08-27T23:11:38.069Z,13.73
2017-08-27T23:14:04.321Z,13.73
2017-08-27T23:16:30.620Z,13.80
2017-08-27T23:18:56.907Z,15.10
2017-08-27T23:21:23.181Z,13.10
2017-08-27T23:23:49.453Z,14.10
2017-08-27T23:26:15.773Z,15.30
2017-08-27T23:28:42.089Z,14.30
2017-08-27T23:31:08.350Z,13.73
2017-08-27T23:33:34.684Z,13.03
2017-08-27T23:36:00.943Z,13.20
2017-08-27T23:38:27.254Z,14.07
2017-08-27T23:40:53.514Z,13.03
2017-08-27T23:43:19.806Z,14.13
2017-08-27T23:45:46.067Z,14.30
2017-08-27T23:48:12.350Z,15.00
2017-08-27T23:50:38.622Z,13.87
2017-08-27T23:53:04.942Z,13.47
2017-08-27T23:55:31.203Z,14.47
2017-08-27T23:57:57.501Z,14.40
